sensor_id;sensor_type;location;lat;lon;timestamp;P1;durP1;ratioP1;P2;durP2;ratioP2
5285;SDS011;2665;53.112;7.358;2022-12-24T00:02:08;7.23;;;4.70;;
5285;SDS011;2665;53.112;7.358;2022-12-24T00:04:34;9.90;;;5.30;;
5285;SDS011;2665;53.112;7.358;2022-12-24T00:06:59;9.20;;;4.53;;
5285;SDS011;2665;53.112;7.358;2022-12-24T00:09:25;8.70;;;5.53;;
5285;SDS011;2665;53.112;7.358;2022-12-24T00:11:51;6.03;;;4.60;;
5285;SDS011;2665;53.112;7.358;2022-12-24T00:14:16;9.10;;;4.60;;
5285;SDS011;2665;53.112;7.358;2022-12-24T00:16:42;7.50;;;4.77;;
5285;SDS011;2665;53.112;7.358;2022-12-24T00:19:07;8.20;;;4.20;;
5285;SDS011;2665;53.112;7.358;2022-12-24T00:21:33;7.03;;;5.37;;
5285;SDS011;2665;53.112;7.358;2022-12-24T00:23:58;7.13;;;4.20;;
5285;SDS011;2665;53.112;7.358;2022-12-24T00:26:24;6.87;;;3.90;;
5285;SDS011;2665;53.112;7.358;2022-12-24T00:28:50;6.67;;;4.83;;
5285;SDS011;2665;53.112;7.358;2022-12-24T00:31:16;7.10;;;4.40;;
5285;SDS011;2665;53.112;7.358;2022-12-24T00:33:43;8.27;;;5.03;;
5285;SDS011;2665;53.112;7.358;2022-12-24T00:36:10;6.03;;;4.23;;
5285;SDS011;2665;53.112;7.358;2022-12-24T00:38:36;6.23;;;4.40;;
5285;SDS011;2665;53.112;7.358;2022-12-24T00:41:02;7.53;;;4.60;;
5285;SDS011;2665;53.112;7.358;2022-12-24T00:43:30;7.40;;;4.00;;
5285;SDS011;2665;53.112;7.358;2022-12-24T00:45:56;11.97;;;4.90;;
5285;SDS011;2665;53.112;7.358;2022-12-24T00:48:22;6.53;;;3.90;;
5285;SDS011;2665;53.112;7.358;2022-12-24T00:50:48;6.77;;;4.70;;
5285;SDS011;2665;53.112;7.358;2022-12-24T00:53:14;7.70;;;4.47;;
5285;SDS011;2665;53.112;7.358;2022-12-24T00:55:42;6.17;;;4.17;;
5285;SDS011;2665;53.112;7.358;2022-12-24T00:58:08;7.20;;;4.13;;
5285;SDS011;2665;53.112;7.358;2022-12-24T01:00:33;7.67;;;4.87;;
5285;SDS011;2665;53.112;7.358;2022-12-24T01:02:59;7.30;;;4.97;;
5285;SDS011;2665;53.112;7.358;2022-12-24T01:05:24;6.60;;;4.47;;
5285;SDS011;2665;53.112;7.358;2022-12-24T01:07:50;7.73;;;5.00;;
5285;SDS011;2665;53.112;7.358;2022-12-24T01:10:17;10.00;;;5.20;;
5285;SDS011;2665;53.112;7.358;2022-12-24T01:12:44;7.93;;;5.77;;
5285;SDS011;2665;53.112;7.358;2022-12-24T01:15:11;8.03;;;4.23;;
5285;SDS011;2665;53.112;7.358;2022-12-24T01:17:38;6.83;;;4.57;;
5285;SDS011;2665;53.112;7.358;2022-12-24T01:20:04;10.87;;;6.07;;
5285;SDS011;2665;53.112;7.358;2022-12-24T01:22:31;7.37;;;4.70;;
5285;SDS011;2665;53.112;7.358;2022-12-24T01:24:57;5.67;;;3.80;;
5285;SDS011;2665;53.112;7.358;2022-12-24T01:27:23;6.97;;;4.57;;
5285;SDS011;2665;53.112;7.358;2022-12-24T01:29:48;7.13;;;4.87;;
5285;SDS011;2665;53.112;7.358;2022-12-24T01:32:14;5.50;;;3.73;;
5285;SDS011;2665;53.112;7.358;2022-12-24T01:34:39;5.97;;;3.00;;
5285;SDS011;2665;53.112;7.358;2022-12-24T01:37:05;4.50;;;2.90;;
5285;SDS011;2665;53.112;7.358;2022-12-24T01:39:31;9.03;;;5.27;;
5285;SDS011;2665;53.112;7.358;2022-12-24T01:41:56;7.00;;;4.30;;
5285;SDS011;2665;53.112;7.358;2022-12-24T01:44:41;8.00;;;4.60;;
5285;SDS011;2665;53.112;7.358;2022-12-24T01:47:22;8.77;;;5.23;;
5285;SDS011;2665;53.112;7.358;2022-12-24T01:50:01;8.67;;;4.93;;
5285;SDS011;2665;53.112;7.358;2022-12-24T01:52:36;11.00;;;5.50;;
5285;SDS011;2665;53.112;7.358;2022-12-24T01:55:04;7.50;;;4.70;;
5285;SDS011;2665;53.112;7.358;2022-12-24T01:57:42;9.07;;;5.20;;
5285;SDS011;2665;53.112;7.358;2022-12-24T02:00:11;9.37;;;4.90;;
5285;SDS011;2665;53.112;7.358;2022-12-24T02:02:39;7.63;;;3.90;;
5285;SDS011;2665;53.112;7.358;2022-12-24T02:07:52;6.80;;;3.77;;
5285;SDS011;2665;53.112;7.358;2022-12-24T02:10:18;7.93;;;3.67;;
5285;SDS011;2665;53.112;7.358;2022-12-24T02:12:44;9.27;;;5.40;;
5285;SDS011;2665;53.112;7.358;2022-12-24T02:15:12;7.70;;;4.80;;
5285;SDS011;2665;53.112;7.358;2022-12-24T02:17:54;8.53;;;4.77;;
5285;SDS011;2665;53.112;7.358;2022-12-24T02:33:59;10.90;;;5.37;;
5285;SDS011;2665;53.112;7.358;2022-12-24T02:39:27;11.13;;;6.00;;
5285;SDS011;2665;53.112;7.358;2022-12-24T02:41:59;10.00;;;5.10;;
5285;SDS011;2665;53.112;7.358;2022-12-24T02:44:43;9.67;;;5.90;;
5285;SDS011;2665;53.112;7.358;2022-12-24T02:47:13;7.53;;;5.60;;
5285;SDS011;2665;53.112;7.358;2022-12-24T02:49:42;10.37;;;5.77;;
5285;SDS011;2665;53.112;7.358;2022-12-24T02:54:54;8.37;;;5.70;;
5285;SDS011;2665;53.112;7.358;2022-12-24T02:57:24;9.27;;;5.33;;
5285;SDS011;2665;53.112;7.358;2022-12-24T03:00:02;9.33;;;5.60;;
5285;SDS011;2665;53.112;7.358;2022-12-24T03:07:34;13.63;;;6.43;;
5285;SDS011;2665;53.112;7.358;2022-12-24T03:12:54;9.10;;;5.50;;
5285;SDS011;2665;53.112;7.358;2022-12-24T03:15:23;10.23;;;6.40;;
5285;SDS011;2665;53.112;7.358;2022-12-24T03:17:50;11.00;;;6.30;;
5285;SDS011;2665;53.112;7.358;2022-12-24T03:20:20;16.50;;;7.27;;
5285;SDS011;2665;53.112;7.358;2022-12-24T03:22:49;14.50;;;7.70;;
5285;SDS011;2665;53.112;7.358;2022-12-24T03:25:15;10.83;;;6.50;;
5285;SDS011;2665;53.112;7.358;2022-12-24T03:27:40;14.80;;;7.43;;
5285;SDS011;2665;53.112;7.358;2022-12-24T03:30:09;13.57;;;7.20;;
5285;SDS011;2665;53.112;7.358;2022-12-24T03:32:36;14.60;;;8.37;;
5285;SDS011;2665;53.112;7.358;2022-12-24T03:35:02;15.23;;;7.30;;
5285;SDS011;2665;53.112;7.358;2022-12-24T03:37:28;13.63;;;7.30;;
5285;SDS011;2665;53.112;7.358;2022-12-24T03:39:54;13.90;;;6.70;;
5285;SDS011;2665;53.112;7.358;2022-12-24T03:42:20;15.97;;;7.43;;
5285;SDS011;2665;53.112;7.358;2022-12-24T03:44:45;14.13;;;7.50;;
5285;SDS011;2665;53.112;7.358;2022-12-24T03:47:11;18.20;;;8.40;;
5285;SDS011;2665;53.112;7.358;2022-12-24T03:49:36;17.90;;;7.57;;
5285;SDS011;2665;53.112;7.358;2022-12-24T03:52:02;15.13;;;7.40;;
5285;SDS011;2665;53.112;7.358;2022-12-24T03:54:28;13.27;;;7.30;;
5285;SDS011;2665;53.112;7.358;2022-12-24T03:56:53;16.97;;;8.00;;
5285;SDS011;2665;53.112;7.358;2022-12-24T03:59:19;19.90;;;8.50;;
5285;SDS011;2665;53.112;7.358;2022-12-24T04:01:45;12.80;;;7.83;;
5285;SDS011;2665;53.112;7.358;2022-12-24T04:04:10;18.20;;;8.43;;
5285;SDS011;2665;53.112;7.358;2022-12-24T04:06:36;15.07;;;7.70;;
5285;SDS011;2665;53.112;7.358;2022-12-24T04:09:01;18.43;;;8.70;;
5285;SDS011;2665;53.112;7.358;2022-12-24T04:11:29;17.17;;;6.93;;
5285;SDS011;2665;53.112;7.358;2022-12-24T04:13:56;12.37;;;7.60;;
5285;SDS011;2665;53.112;7.358;2022-12-24T04:16:21;13.57;;;6.40;;
5285;SDS011;2665;53.112;7.358;2022-12-24T04:18:47;13.10;;;7.57;;
5285;SDS011;2665;53.112;7.358;2022-12-24T04:21:12;12.43;;;7.40;;
5285;SDS011;2665;53.112;7.358;2022-12-24T04:23:39;11.23;;;5.40;;
5285;SDS011;2665;53.112;7.358;2022-12-24T04:26:06;10.50;;;5.63;;
5285;SDS011;2665;53.112;7.358;2022-12-24T04:28:33;11.57;;;6.10;;
5285;SDS011;2665;53.112;7.358;2022-12-24T04:31:04;17.60;;;6.20;;
5285;SDS011;2665;53.112;7.358;2022-12-24T04:33:32;9.33;;;5.10;;
5285;SDS011;2665;53.112;7.358;2022-12-24T04:35:59;9.57;;;4.20;;
5285;SDS011;2665;53.112;7.358;2022-12-24T04:38:26;15.30;;;4.53;;
5285;SDS011;2665;53.112;7.358;2022-12-24T04:41:00;11.23;;;4.50;;
5285;SDS011;2665;53.112;7.358;2022-12-24T04:43:30;6.20;;;3.97;;
5285;SDS011;2665;53.112;7.358;2022-12-24T04:46:03;8.00;;;3.83;;
5285;SDS011;2665;53.112;7.358;2022-12-24T04:48:30;9.90;;;4.37;;
5285;SDS011;2665;53.112;7.358;2022-12-24T04:50:55;10.07;;;3.37;;
5285;SDS011;2665;53.112;7.358;2022-12-24T04:53:21;10.53;;;4.13;;
5285;SDS011;2665;53.112;7.358;2022-12-24T04:55:46;18.07;;;4.00;;
5285;SDS011;2665;53.112;7.358;2022-12-24T04:58:12;10.83;;;2.83;;
5285;SDS011;2665;53.112;7.358;2022-12-24T05:00:39;19.03;;;3.43;;
5285;SDS011;2665;53.112;7.358;2022-12-24T05:03:04;10.90;;;3.17;;
5285;SDS011;2665;53.112;7.358;2022-12-24T05:05:30;16.00;;;2.73;;
5285;SDS011;2665;53.112;7.358;2022-12-24T05:07:56;13.87;;;3.00;;
5285;SDS011;2665;53.112;7.358;2022-12-24T05:10:21;19.47;;;2.90;;
5285;SDS011;2665;53.112;7.358;2022-12-24T05:12:47;16.23;;;3.00;;
5285;SDS011;2665;53.112;7.358;2022-12-24T05:15:12;14.93;;;3.50;;
5285;SDS011;2665;53.112;7.358;2022-12-24T05:17:38;12.73;;;2.57;;
5285;SDS011;2665;53.112;7.358;2022-12-24T05:20:04;22.43;;;2.40;;
5285;SDS011;2665;53.112;7.358;2022-12-24T05:22:30;17.63;;;2.80;;
5285;SDS011;2665;53.112;7.358;2022-12-24T05:25:14;19.57;;;2.90;;
5285;SDS011;2665;53.112;7.358;2022-12-24T05:27:58;12.17;;;2.37;;
5285;SDS011;2665;53.112;7.358;2022-12-24T05:30:24;10.87;;;3.03;;
5285;SDS011;2665;53.112;7.358;2022-12-24T05:32:50;10.80;;;2.63;;
5285;SDS011;2665;53.112;7.358;2022-12-24T05:35:15;9.53;;;2.13;;
5285;SDS011;2665;53.112;7.358;2022-12-24T05:37:41;20.97;;;2.30;;
5285;SDS011;2665;53.112;7.358;2022-12-24T05:40:07;15.70;;;2.87;;
5285;SDS011;2665;53.112;7.358;2022-12-24T05:42:33;16.03;;;2.47;;
5285;SDS011;2665;53.112;7.358;2022-12-24T05:44:58;10.13;;;2.23;;
5285;SDS011;2665;53.112;7.358;2022-12-24T05:47:24;17.97;;;2.97;;
5285;SDS011;2665;53.112;7.358;2022-12-24T05:49:50;12.10;;;2.43;;
5285;SDS011;2665;53.112;7.358;2022-12-24T05:52:15;9.73;;;1.93;;
5285;SDS011;2665;53.112;7.358;2022-12-24T05:54:41;13.27;;;2.67;;
5285;SDS011;2665;53.112;7.358;2022-12-24T05:57:06;9.03;;;2.80;;
5285;SDS011;2665;53.112;7.358;2022-12-24T05:59:32;14.50;;;2.10;;
5285;SDS011;2665;53.112;7.358;2022-12-24T06:01:58;17.77;;;2.13;;
5285;SDS011;2665;53.112;7.358;2022-12-24T06:04:23;11.07;;;2.77;;
5285;SDS011;2665;53.112;7.358;2022-12-24T06:06:49;15.07;;;3.60;;
5285;SDS011;2665;53.112;7.358;2022-12-24T06:09:14;11.27;;;2.20;;
5285;SDS011;2665;53.112;7.358;2022-12-24T06:11:41;11.07;;;3.10;;
5285;SDS011;2665;53.112;7.358;2022-12-24T06:14:06;16.03;;;3.53;;
5285;SDS011;2665;53.112;7.358;2022-12-24T06:16:32;25.67;;;3.50;;
5285;SDS011;2665;53.112;7.358;2022-12-24T06:18:58;20.40;;;2.77;;
5285;SDS011;2665;53.112;7.358;2022-12-24T06:21:24;11.93;;;2.30;;
5285;SDS011;2665;53.112;7.358;2022-12-24T06:23:49;15.13;;;3.20;;
5285;SDS011;2665;53.112;7.358;2022-12-24T06:26:16;17.67;;;3.37;;
5285;SDS011;2665;53.112;7.358;2022-12-24T06:28:43;10.30;;;2.30;;
5285;SDS011;2665;53.112;7.358;2022-12-24T06:31:10;16.87;;;3.30;;
5285;SDS011;2665;53.112;7.358;2022-12-24T06:33:38;22.33;;;3.70;;
5285;SDS011;2665;53.112;7.358;2022-12-24T06:36:07;14.23;;;2.40;;
5285;SDS011;2665;53.112;7.358;2022-12-24T06:38:37;19.50;;;2.97;;
5285;SDS011;2665;53.112;7.358;2022-12-24T06:41:07;10.30;;;2.77;;
5285;SDS011;2665;53.112;7.358;2022-12-24T06:43:33;14.53;;;3.27;;
5285;SDS011;2665;53.112;7.358;2022-12-24T06:46:00;8.27;;;2.73;;
5285;SDS011;2665;53.112;7.358;2022-12-24T06:48:26;19.30;;;3.33;;
5285;SDS011;2665;53.112;7.358;2022-12-24T06:50:52;20.93;;;2.90;;
5285;SDS011;2665;53.112;7.358;2022-12-24T06:53:17;11.43;;;2.87;;
5285;SDS011;2665;53.112;7.358;2022-12-24T06:55:43;26.90;;;4.70;;
5285;SDS011;2665;53.112;7.358;2022-12-24T06:58:09;16.30;;;2.90;;
5285;SDS011;2665;53.112;7.358;2022-12-24T07:00:35;26.23;;;2.70;;
5285;SDS011;2665;53.112;7.358;2022-12-24T07:03:01;12.43;;;3.13;;
5285;SDS011;2665;53.112;7.358;2022-12-24T07:05:27;8.30;;;2.30;;
5285;SDS011;2665;53.112;7.358;2022-12-24T07:07:54;9.00;;;2.13;;
5285;SDS011;2665;53.112;7.358;2022-12-24T07:10:19;25.30;;;2.80;;
5285;SDS011;2665;53.112;7.358;2022-12-24T07:12:46;14.97;;;3.20;;
5285;SDS011;2665;53.112;7.358;2022-12-24T07:15:12;24.73;;;3.50;;
5285;SDS011;2665;53.112;7.358;2022-12-24T07:17:38;22.07;;;3.27;;
5285;SDS011;2665;53.112;7.358;2022-12-24T07:20:05;15.53;;;3.70;;
5285;SDS011;2665;53.112;7.358;2022-12-24T07:22:31;21.97;;;5.30;;
5285;SDS011;2665;53.112;7.358;2022-12-24T07:24:57;17.80;;;3.40;;
5285;SDS011;2665;53.112;7.358;2022-12-24T07:27:23;9.60;;;3.13;;
5285;SDS011;2665;53.112;7.358;2022-12-24T07:29:48;12.00;;;3.93;;
5285;SDS011;2665;53.112;7.358;2022-12-24T07:32:14;21.67;;;3.63;;
5285;SDS011;2665;53.112;7.358;2022-12-24T07:34:40;19.27;;;2.93;;
5285;SDS011;2665;53.112;7.358;2022-12-24T07:37:06;20.00;;;3.47;;
5285;SDS011;2665;53.112;7.358;2022-12-24T07:39:31;14.93;;;3.40;;
5285;SDS011;2665;53.112;7.358;2022-12-24T07:41:57;20.13;;;3.50;;
5285;SDS011;2665;53.112;7.358;2022-12-24T07:44:23;28.00;;;3.80;;
5285;SDS011;2665;53.112;7.358;2022-12-24T07:46:49;19.37;;;3.40;;
5285;SDS011;2665;53.112;7.358;2022-12-24T07:49:15;13.80;;;3.10;;
5285;SDS011;2665;53.112;7.358;2022-12-24T07:51:40;9.37;;;3.20;;
5285;SDS011;2665;53.112;7.358;2022-12-24T07:54:06;12.23;;;2.93;;
5285;SDS011;2665;53.112;7.358;2022-12-24T07:56:32;23.20;;;3.93;;
5285;SDS011;2665;53.112;7.358;2022-12-24T07:58:58;23.00;;;3.27;;
5285;SDS011;2665;53.112;7.358;2022-12-24T08:01:24;26.67;;;3.33;;
5285;SDS011;2665;53.112;7.358;2022-12-24T08:03:49;34.97;;;3.30;;
5285;SDS011;2665;53.112;7.358;2022-12-24T08:06:18;20.30;;;3.57;;
5285;SDS011;2665;53.112;7.358;2022-12-24T08:08:44;21.47;;;4.83;;
5285;SDS011;2665;53.112;7.358;2022-12-24T08:11:10;40.17;;;4.70;;
5285;SDS011;2665;53.112;7.358;2022-12-24T08:13:36;20.83;;;3.93;;
5285;SDS011;2665;53.112;7.358;2022-12-24T08:16:02;19.63;;;3.30;;
5285;SDS011;2665;53.112;7.358;2022-12-24T08:18:28;20.90;;;3.80;;
5285;SDS011;2665;53.112;7.358;2022-12-24T08:20:53;14.60;;;3.90;;
5285;SDS011;2665;53.112;7.358;2022-12-24T08:23:19;21.17;;;4.30;;
5285;SDS011;2665;53.112;7.358;2022-12-24T08:25:45;16.83;;;3.23;;
5285;SDS011;2665;53.112;7.358;2022-12-24T08:28:13;26.13;;;3.40;;
5285;SDS011;2665;53.112;7.358;2022-12-24T08:30:40;11.87;;;3.47;;
5285;SDS011;2665;53.112;7.358;2022-12-24T08:33:08;8.20;;;2.63;;
5285;SDS011;2665;53.112;7.358;2022-12-24T08:35:34;31.83;;;4.27;;
5285;SDS011;2665;53.112;7.358;2022-12-24T08:38:00;19.53;;;3.10;;
5285;SDS011;2665;53.112;7.358;2022-12-24T08:40:26;21.80;;;4.17;;
5285;SDS011;2665;53.112;7.358;2022-12-24T08:42:52;20.60;;;4.83;;
5285;SDS011;2665;53.112;7.358;2022-12-24T08:45:17;9.63;;;2.70;;
5285;SDS011;2665;53.112;7.358;2022-12-24T08:47:43;16.97;;;3.43;;
5285;SDS011;2665;53.112;7.358;2022-12-24T08:50:09;18.83;;;5.33;;
5285;SDS011;2665;53.112;7.358;2022-12-24T08:52:35;11.50;;;3.33;;
5285;SDS011;2665;53.112;7.358;2022-12-24T08:55:01;10.80;;;4.00;;
5285;SDS011;2665;53.112;7.358;2022-12-24T08:57:27;19.37;;;3.80;;
5285;SDS011;2665;53.112;7.358;2022-12-24T08:59:53;16.90;;;3.47;;
5285;SDS011;2665;53.112;7.358;2022-12-24T09:02:19;24.63;;;4.40;;
5285;SDS011;2665;53.112;7.358;2022-12-24T09:04:45;38.87;;;4.37;;
5285;SDS011;2665;53.112;7.358;2022-12-24T09:07:10;14.03;;;4.33;;
5285;SDS011;2665;53.112;7.358;2022-12-24T09:09:36;12.10;;;4.00;;
5285;SDS011;2665;53.112;7.358;2022-12-24T09:12:05;18.70;;;2.97;;
5285;SDS011;2665;53.112;7.358;2022-12-24T09:14:32;18.23;;;3.60;;
5285;SDS011;2665;53.112;7.358;2022-12-24T09:16:58;16.40;;;2.93;;
5285;SDS011;2665;53.112;7.358;2022-12-24T09:19:24;18.50;;;4.10;;
5285;SDS011;2665;53.112;7.358;2022-12-24T09:21:49;16.37;;;3.87;;
5285;SDS011;2665;53.112;7.358;2022-12-24T09:24:15;12.90;;;2.63;;
5285;SDS011;2665;53.112;7.358;2022-12-24T09:26:41;15.43;;;3.33;;
5285;SDS011;2665;53.112;7.358;2022-12-24T09:29:07;22.10;;;3.53;;
5285;SDS011;2665;53.112;7.358;2022-12-24T09:31:34;10.00;;;2.33;;
5285;SDS011;2665;53.112;7.358;2022-12-24T09:33:59;16.07;;;3.30;;
5285;SDS011;2665;53.112;7.358;2022-12-24T09:36:25;17.47;;;3.00;;
5285;SDS011;2665;53.112;7.358;2022-12-24T09:38:51;13.57;;;3.13;;
5285;SDS011;2665;53.112;7.358;2022-12-24T09:43:45;13.90;;;3.30;;
5285;SDS011;2665;53.112;7.358;2022-12-24T09:49:02;25.43;;;5.30;;
5285;SDS011;2665;53.112;7.358;2022-12-24T09:54:27;15.50;;;3.60;;
5285;SDS011;2665;53.112;7.358;2022-12-24T09:56:56;19.13;;;3.63;;
5285;SDS011;2665;53.112;7.358;2022-12-24T10:02:21;16.33;;;2.60;;
5285;SDS011;2665;53.112;7.358;2022-12-24T10:04:47;24.97;;;3.80;;
5285;SDS011;2665;53.112;7.358;2022-12-24T10:10:49;11.13;;;3.20;;
5285;SDS011;2665;53.112;7.358;2022-12-24T10:21:23;18.97;;;3.80;;
5285;SDS011;2665;53.112;7.358;2022-12-24T10:26:43;15.13;;;4.17;;
5285;SDS011;2665;53.112;7.358;2022-12-24T10:29:26;14.10;;;3.67;;
5285;SDS011;2665;53.112;7.358;2022-12-24T10:34:30;10.67;;;4.30;;
5285;SDS011;2665;53.112;7.358;2022-12-24T10:37:00;13.17;;;4.07;;
5285;SDS011;2665;53.112;7.358;2022-12-24T10:39:28;16.03;;;4.00;;
5285;SDS011;2665;53.112;7.358;2022-12-24T10:41:54;10.90;;;3.70;;
5285;SDS011;2665;53.112;7.358;2022-12-24T10:44:23;21.17;;;3.37;;
5285;SDS011;2665;53.112;7.358;2022-12-24T10:46:52;15.67;;;3.63;;
5285;SDS011;2665;53.112;7.358;2022-12-24T10:49:20;15.43;;;3.57;;
5285;SDS011;2665;53.112;7.358;2022-12-24T10:52:04;20.20;;;4.07;;
5285;SDS011;2665;53.112;7.358;2022-12-24T10:54:34;18.03;;;3.80;;
5285;SDS011;2665;53.112;7.358;2022-12-24T10:57:03;14.37;;;3.60;;
5285;SDS011;2665;53.112;7.358;2022-12-24T10:59:33;14.70;;;4.40;;
5285;SDS011;2665;53.112;7.358;2022-12-24T11:04:55;17.30;;;3.93;;
5285;SDS011;2665;53.112;7.358;2022-12-24T11:07:23;18.23;;;4.27;;
5285;SDS011;2665;53.112;7.358;2022-12-24T11:09:56;15.07;;;3.77;;
5285;SDS011;2665;53.112;7.358;2022-12-24T11:12:36;15.97;;;4.10;;
5285;SDS011;2665;53.112;7.358;2022-12-24T11:15:24;14.90;;;3.80;;
5285;SDS011;2665;53.112;7.358;2022-12-24T11:18:11;16.53;;;2.90;;
5285;SDS011;2665;53.112;7.358;2022-12-24T11:20:38;28.13;;;4.10;;
5285;SDS011;2665;53.112;7.358;2022-12-24T11:23:05;7.27;;;3.20;;
5285;SDS011;2665;53.112;7.358;2022-12-24T11:25:31;13.10;;;2.90;;
5285;SDS011;2665;53.112;7.358;2022-12-24T11:28:11;12.10;;;3.20;;
5285;SDS011;2665;53.112;7.358;2022-12-24T11:30:49;16.33;;;2.57;;
5285;SDS011;2665;53.112;7.358;2022-12-24T11:33:50;18.03;;;2.90;;
5285;SDS011;2665;53.112;7.358;2022-12-24T11:36:20;7.80;;;2.63;;
5285;SDS011;2665;53.112;7.358;2022-12-24T11:38:52;11.03;;;2.80;;
5285;SDS011;2665;53.112;7.358;2022-12-24T11:41:19;26.07;;;3.30;;
5285;SDS011;2665;53.112;7.358;2022-12-24T11:43:46;14.83;;;2.87;;
5285;SDS011;2665;53.112;7.358;2022-12-24T11:49:32;15.10;;;2.60;;
5285;SDS011;2665;53.112;7.358;2022-12-24T11:52:12;6.60;;;2.23;;
5285;SDS011;2665;53.112;7.358;2022-12-24T12:01:15;8.33;;;2.33;;
5285;SDS011;2665;53.112;7.358;2022-12-24T12:03:53;15.80;;;2.53;;
5285;SDS011;2665;53.112;7.358;2022-12-24T12:09:09;14.43;;;2.70;;
5285;SDS011;2665;53.112;7.358;2022-12-24T12:11:49;10.63;;;2.40;;
5285;SDS011;2665;53.112;7.358;2022-12-24T12:14:20;8.83;;;1.97;;
5285;SDS011;2665;53.112;7.358;2022-12-24T12:22:13;12.60;;;2.53;;
5285;SDS011;2665;53.112;7.358;2022-12-24T12:24:49;6.97;;;1.90;;
5285;SDS011;2665;53.112;7.358;2022-12-24T12:27:31;10.03;;;2.30;;
5285;SDS011;2665;53.112;7.358;2022-12-24T12:30:05;14.13;;;3.20;;
5285;SDS011;2665;53.112;7.358;2022-12-24T12:35:33;19.17;;;2.87;;
5285;SDS011;2665;53.112;7.358;2022-12-24T12:38:10;19.17;;;3.47;;
5285;SDS011;2665;53.112;7.358;2022-12-24T12:45:57;14.30;;;2.17;;
5285;SDS011;2665;53.112;7.358;2022-12-24T12:48:42;14.30;;;2.50;;
5285;SDS011;2665;53.112;7.358;2022-12-24T12:51:39;13.67;;;2.90;;
5285;SDS011;2665;53.112;7.358;2022-12-24T12:57:22;12.47;;;1.70;;
5285;SDS011;2665;53.112;7.358;2022-12-24T13:00:04;19.83;;;3.30;;
5285;SDS011;2665;53.112;7.358;2022-12-24T13:06:25;10.53;;;2.30;;
5285;SDS011;2665;53.112;7.358;2022-12-24T13:11:29;13.70;;;2.10;;
5285;SDS011;2665;53.112;7.358;2022-12-24T13:20:09;7.97;;;2.20;;
5285;SDS011;2665;53.112;7.358;2022-12-24T13:22:36;8.60;;;2.37;;
5285;SDS011;2665;53.112;7.358;2022-12-24T13:25:02;16.03;;;2.90;;
5285;SDS011;2665;53.112;7.358;2022-12-24T13:27:28;7.87;;;2.00;;
5285;SDS011;2665;53.112;7.358;2022-12-24T13:30:00;6.60;;;1.83;;
5285;SDS011;2665;53.112;7.358;2022-12-24T13:53:05;12.00;;;1.90;;
5285;SDS011;2665;53.112;7.358;2022-12-24T13:58:31;8.50;;;1.70;;
5285;SDS011;2665;53.112;7.358;2022-12-24T14:00:59;14.93;;;1.70;;
5285;SDS011;2665;53.112;7.358;2022-12-24T14:03:36;5.70;;;1.70;;
5285;SDS011;2665;53.112;7.358;2022-12-24T14:06:22;20.70;;;3.47;;
5285;SDS011;2665;53.112;7.358;2022-12-24T14:09:04;23.20;;;2.87;;
5285;SDS011;2665;53.112;7.358;2022-12-24T14:19:58;10.70;;;2.73;;
5285;SDS011;2665;53.112;7.358;2022-12-24T14:25:14;9.83;;;1.70;;
5285;SDS011;2665;53.112;7.358;2022-12-24T14:28:25;17.80;;;2.53;;
5285;SDS011;2665;53.112;7.358;2022-12-24T14:30:37;8.20;;;1.77;;
5285;SDS011;2665;53.112;7.358;2022-12-24T14:33:03;13.30;;;2.47;;
5285;SDS011;2665;53.112;7.358;2022-12-24T14:35:36;10.93;;;1.67;;
5285;SDS011;2665;53.112;7.358;2022-12-24T14:38:04;10.90;;;1.50;;
5285;SDS011;2665;53.112;7.358;2022-12-24T14:43:41;13.03;;;1.97;;
5285;SDS011;2665;53.112;7.358;2022-12-24T14:46:31;10.40;;;2.20;;
5285;SDS011;2665;53.112;7.358;2022-12-24T14:54:35;6.53;;;1.30;;
5285;SDS011;2665;53.112;7.358;2022-12-24T14:59:41;14.30;;;1.90;;
5285;SDS011;2665;53.112;7.358;2022-12-24T15:02:58;9.53;;;1.80;;
5285;SDS011;2665;53.112;7.358;2022-12-24T15:05:24;12.17;;;3.20;;
5285;SDS011;2665;53.112;7.358;2022-12-24T15:08:00;5.60;;;2.03;;
5285;SDS011;2665;53.112;7.358;2022-12-24T15:10:30;5.80;;;1.50;;
5285;SDS011;2665;53.112;7.358;2022-12-24T15:13:06;14.90;;;1.90;;
5285;SDS011;2665;53.112;7.358;2022-12-24T15:15:50;12.50;;;2.60;;
5285;SDS011;2665;53.112;7.358;2022-12-24T15:18:19;9.60;;;2.37;;
5285;SDS011;2665;53.112;7.358;2022-12-24T15:20:50;7.87;;;1.67;;
5285;SDS011;2665;53.112;7.358;2022-12-24T15:23:36;7.10;;;1.97;;
5285;SDS011;2665;53.112;7.358;2022-12-24T15:26:20;8.50;;;2.03;;
5285;SDS011;2665;53.112;7.358;2022-12-24T15:28:47;7.10;;;1.53;;
5285;SDS011;2665;53.112;7.358;2022-12-24T15:31:15;12.20;;;1.77;;
5285;SDS011;2665;53.112;7.358;2022-12-24T15:33:44;10.17;;;1.97;;
5285;SDS011;2665;53.112;7.358;2022-12-24T15:36:10;6.77;;;1.50;;
5285;SDS011;2665;53.112;7.358;2022-12-24T15:38:42;8.83;;;1.77;;
5285;SDS011;2665;53.112;7.358;2022-12-24T15:43:44;11.43;;;2.00;;
5285;SDS011;2665;53.112;7.358;2022-12-24T15:46:45;7.83;;;1.67;;
5285;SDS011;2665;53.112;7.358;2022-12-24T15:49:04;11.13;;;2.00;;
5285;SDS011;2665;53.112;7.358;2022-12-24T15:51:34;9.70;;;1.23;;
5285;SDS011;2665;53.112;7.358;2022-12-24T15:54:05;10.30;;;2.00;;
5285;SDS011;2665;53.112;7.358;2022-12-24T15:56:41;14.27;;;2.10;;
5285;SDS011;2665;53.112;7.358;2022-12-24T15:59:12;8.33;;;2.00;;
5285;SDS011;2665;53.112;7.358;2022-12-24T16:01:38;6.93;;;1.23;;
5285;SDS011;2665;53.112;7.358;2022-12-24T16:04:11;4.53;;;1.40;;
5285;SDS011;2665;53.112;7.358;2022-12-24T16:09:29;6.93;;;1.50;;
5285;SDS011;2665;53.112;7.358;2022-12-24T16:12:01;8.90;;;2.20;;
5285;SDS011;2665;53.112;7.358;2022-12-24T16:14:28;7.30;;;1.77;;
5285;SDS011;2665;53.112;7.358;2022-12-24T16:16:56;5.60;;;1.57;;
5285;SDS011;2665;53.112;7.358;2022-12-24T16:21:50;8.13;;;1.90;;
5285;SDS011;2665;53.112;7.358;2022-12-24T16:24:21;11.50;;;2.70;;
5285;SDS011;2665;53.112;7.358;2022-12-24T16:26:55;7.43;;;1.50;;
5285;SDS011;2665;53.112;7.358;2022-12-24T16:29:21;10.37;;;2.93;;
5285;SDS011;2665;53.112;7.358;2022-12-24T16:31:52;6.77;;;1.73;;
5285;SDS011;2665;53.112;7.358;2022-12-24T16:34:20;11.20;;;2.23;;
5285;SDS011;2665;53.112;7.358;2022-12-24T16:36:49;6.90;;;1.60;;
5285;SDS011;2665;53.112;7.358;2022-12-24T16:39:17;10.00;;;2.20;;
5285;SDS011;2665;53.112;7.358;2022-12-24T16:41:57;5.23;;;1.73;;
5285;SDS011;2665;53.112;7.358;2022-12-24T16:44:43;6.47;;;1.43;;
5285;SDS011;2665;53.112;7.358;2022-12-24T16:47:13;9.83;;;2.00;;
5285;SDS011;2665;53.112;7.358;2022-12-24T16:49:42;9.90;;;2.10;;
5285;SDS011;2665;53.112;7.358;2022-12-24T16:52:14;9.50;;;2.03;;
5285;SDS011;2665;53.112;7.358;2022-12-24T16:54:41;10.83;;;1.60;;
5285;SDS011;2665;53.112;7.358;2022-12-24T16:57:07;9.50;;;1.93;;
5285;SDS011;2665;53.112;7.358;2022-12-24T16:59:35;13.00;;;1.70;;
5285;SDS011;2665;53.112;7.358;2022-12-24T17:02:01;10.53;;;1.80;;
5285;SDS011;2665;53.112;7.358;2022-12-24T17:04:29;7.80;;;1.73;;
5285;SDS011;2665;53.112;7.358;2022-12-24T17:06:56;5.87;;;1.70;;
5285;SDS011;2665;53.112;7.358;2022-12-24T17:09:21;8.63;;;1.57;;
5285;SDS011;2665;53.112;7.358;2022-12-24T17:11:47;7.17;;;1.60;;
5285;SDS011;2665;53.112;7.358;2022-12-24T17:14:12;5.90;;;1.60;;
5285;SDS011;2665;53.112;7.358;2022-12-24T17:16:38;13.10;;;1.57;;
5285;SDS011;2665;53.112;7.358;2022-12-24T17:19:04;7.93;;;1.90;;
5285;SDS011;2665;53.112;7.358;2022-12-24T17:21:29;7.73;;;2.00;;
5285;SDS011;2665;53.112;7.358;2022-12-24T17:23:55;10.33;;;2.33;;
5285;SDS011;2665;53.112;7.358;2022-12-24T17:26:21;20.20;;;2.23;;
5285;SDS011;2665;53.112;7.358;2022-12-24T17:28:46;5.53;;;1.87;;
5285;SDS011;2665;53.112;7.358;2022-12-24T17:31:13;12.63;;;2.10;;
5285;SDS011;2665;53.112;7.358;2022-12-24T17:33:43;6.43;;;1.40;;
5285;SDS011;2665;53.112;7.358;2022-12-24T17:36:09;4.03;;;1.80;;
5285;SDS011;2665;53.112;7.358;2022-12-24T17:38:35;3.97;;;1.30;;
5285;SDS011;2665;53.112;7.358;2022-12-24T17:41:01;14.23;;;1.97;;
5285;SDS011;2665;53.112;7.358;2022-12-24T17:43:28;5.97;;;2.20;;
5285;SDS011;2665;53.112;7.358;2022-12-24T17:45:54;14.47;;;2.13;;
5285;SDS011;2665;53.112;7.358;2022-12-24T17:48:19;10.63;;;2.30;;
5285;SDS011;2665;53.112;7.358;2022-12-24T17:50:45;12.80;;;3.20;;
5285;SDS011;2665;53.112;7.358;2022-12-24T17:53:10;10.33;;;2.40;;